createdAt,value
2023-01-29T00:00:22.254Z,4.55
2023-01-29T00:02:49.308Z,4.46
2023-01-29T00:05:27.631Z,4.46
2023-01-29T00:07:56.393Z,4.53
2023-01-29T00:10:25.237Z,4.55
2023-01-29T00:12:51.963Z,4.51
2023-01-29T00:15:18.791Z,4.52
2023-01-29T00:17:45.411Z,4.47
2023-01-29T00:20:12.454Z,4.57
2023-01-29T00:22:39.152Z,4.62
2023-01-29T00:25:06.352Z,4.59
2023-01-29T00:27:32.964Z,4.56
2023-01-29T00:30:09.522Z,4.63
2023-01-29T00:32:36.320Z,4.47
2023-01-29T00:35:03.516Z,4.62
2023-01-29T00:37:30.527Z,4.57
2023-01-29T00:39:57.718Z,4.47
2023-01-29T00:42:43.462Z,4.63
2023-01-29T00:45:12.043Z,4.57
2023-01-29T00:47:38.798Z,4.63
2023-01-29T00:50:11.005Z,4.51
2023-01-29T00:52:38.428Z,4.57
2023-01-29T00:55:06.251Z,4.64
2023-01-29T00:57:34.573Z,4.62
2023-01-29T01:00:02.155Z,4.71
2023-01-29T01:02:47.957Z,4.77
2023-01-29T01:05:19.726Z,4.75
2023-01-29T01:07:47.860Z,4.74
2023-01-29T01:10:21.632Z,4.76
2023-01-29T01:12:58.839Z,4.79
2023-01-29T01:15:30.715Z,4.81
2023-01-29T01:18:00.195Z,4.76
2023-01-29T01:20:29.884Z,4.73
2023-01-29T01:22:57.182Z,4.83
2023-01-29T01:25:26.070Z,4.80
2023-01-29T01:27:57.395Z,4.83
2023-01-29T01:30:24.974Z,4.87
2023-01-29T01:32:51.735Z,4.81
2023-01-29T01:35:18.820Z,4.82
2023-01-29T01:37:45.458Z,4.86
2023-01-29T01:40:18.932Z,4.96
2023-01-29T01:42:55.571Z,4.96
2023-01-29T01:45:34.326Z,4.94
2023-01-29T01:48:17.089Z,4.98
2023-01-29T01:50:50.526Z,4.88
2023-01-29T01:53:26.593Z,4.82
2023-01-29T01:56:02.060Z,4.76
2023-01-29T01:58:39.553Z,4.78
2023-01-29T02:01:09.178Z,4.75
2023-01-29T02:04:03.844Z,4.80
2023-01-29T02:06:50.233Z,4.84
2023-01-29T02:09:35.367Z,4.73
2023-01-29T02:12:12.334Z,4.65
2023-01-29T02:14:41.765Z,4.69
2023-01-29T02:17:20.008Z,4.67
2023-01-29T02:20:06.132Z,4.53
2023-01-29T02:22:47.767Z,4.57
2023-01-29T02:25:39.283Z,4.59
2023-01-29T02:28:24.839Z,4.57
2023-01-29T02:31:06.491Z,4.56
2023-01-29T02:33:36.211Z,4.46
2023-01-29T02:36:12.260Z,4.39
2023-01-29T02:39:03.565Z,4.31
2023-01-29T02:41:38.657Z,4.28
2023-01-29T02:44:12.722Z,4.24
2023-01-29T02:46:44.487Z,4.18
2023-01-29T02:49:18.608Z,4.15
2023-01-29T02:51:51.610Z,4.05
2023-01-29T02:54:42.013Z,3.98
2023-01-29T02:57:23.175Z,3.90
2023-01-29T03:00:04.906Z,3.81
2023-01-29T03:02:52.279Z,3.74
2023-01-29T03:05:30.970Z,3.71
2023-01-29T03:08:04.223Z,3.70
2023-01-29T03:10:40.742Z,3.67
2023-01-29T03:13:20.879Z,3.65
2023-01-29T03:16:01.320Z,3.62
2023-01-29T03:18:50.812Z,3.61
2023-01-29T03:21:41.996Z,3.60
2023-01-29T03:24:33.457Z,3.61
2023-01-29T03:27:22.697Z,3.55
2023-01-29T03:30:10.443Z,3.54
2023-01-29T03:32:51.891Z,3.51
2023-01-29T03:35:36.689Z,3.50
2023-01-29T03:38:07.325Z,3.48
2023-01-29T03:40:39.989Z,3.46
2023-01-29T03:43:54.892Z,3.44
2023-01-29T03:46:38.168Z,3.45
2023-01-29T03:49:35.974Z,3.42
2023-01-29T03:52:09.543Z,3.40
2023-01-29T03:55:06.501Z,3.35
2023-01-29T03:57:40.382Z,3.32
2023-01-29T04:00:27.075Z,3.28
2023-01-29T04:03:21.832Z,3.22
2023-01-29T04:05:58.606Z,3.18
2023-01-29T04:08:34.046Z,3.20
2023-01-29T04:11:11.435Z,3.24
2023-01-29T04:13:40.037Z,3.27
2023-01-29T04:16:11.626Z,3.27
2023-01-29T04:18:57.211Z,3.27
2023-01-29T04:21:32.013Z,3.27
2023-01-29T04:23:59.426Z,3.30
2023-01-29T04:26:44.668Z,3.30
2023-01-29T04:29:38.382Z,3.27
2023-01-29T04:32:22.230Z,3.17
2023-01-29T04:35:24.668Z,3.19
2023-01-29T04:38:17.592Z,3.22
2023-01-29T04:41:02.289Z,3.23
2023-01-29T04:43:53.695Z,3.24
2023-01-29T04:46:31.876Z,3.20
2023-01-29T04:49:06.967Z,3.19
2023-01-29T04:51:33.571Z,3.20
2023-01-29T04:54:12.696Z,3.18
2023-01-29T04:57:03.702Z,3.12
2023-01-29T04:59:45.763Z,3.10
2023-01-29T05:02:13.379Z,3.04
2023-01-29T05:04:43.173Z,2.98
2023-01-29T05:07:13.923Z,2.93
2023-01-29T05:09:45.122Z,2.89
2023-01-29T05:12:15.994Z,2.90
2023-01-29T05:14:44.695Z,2.89
2023-01-29T05:17:20.471Z,2.86
2023-01-29T05:19:47.737Z,2.83
2023-01-29T05:22:17.855Z,2.82
2023-01-29T05:24:44.862Z,2.80
2023-01-29T05:27:43.397Z,2.74
2023-01-29T05:30:10.537Z,2.71
2023-01-29T05:32:37.346Z,2.71
2023-01-29T05:35:04.237Z,2.70
2023-01-29T05:37:30.971Z,2.65
2023-01-29T05:39:57.607Z,2.67
2023-01-29T05:42:24.311Z,2.72
2023-01-29T05:44:50.996Z,2.72
2023-01-29T05:47:20.933Z,2.72
2023-01-29T05:49:47.723Z,2.70
2023-01-29T05:52:14.359Z,2.67
2023-01-29T05:54:41.060Z,2.46
2023-01-29T05:57:07.665Z,2.49
2023-01-29T05:59:34.380Z,2.54
2023-01-29T06:02:01.036Z,2.56
2023-01-29T06:04:27.700Z,2.63
2023-01-29T06:06:54.372Z,2.70
2023-01-29T06:09:21.094Z,2.71
2023-01-29T06:11:47.726Z,2.72
2023-01-29T06:14:14.411Z,2.64
2023-01-29T06:16:41.007Z,2.51
2023-01-29T06:19:07.659Z,2.44
2023-01-29T06:21:34.394Z,2.39
2023-01-29T06:24:01.123Z,2.39
2023-01-29T06:26:27.885Z,2.44
2023-01-29T06:28:54.682Z,2.45
2023-01-29T06:31:37.225Z,2.48
2023-01-29T06:34:06.132Z,2.45
2023-01-29T06:36:32.762Z,2.56
2023-01-29T06:38:59.510Z,2.57
2023-01-29T06:41:26.275Z,2.61
2023-01-29T06:43:52.929Z,2.63
2023-01-29T06:46:19.708Z,2.59
2023-01-29T06:48:46.349Z,2.57
2023-01-29T06:51:13.000Z,2.62
2023-01-29T06:53:40.550Z,2.66
2023-01-29T06:56:08.073Z,2.69
2023-01-29T06:58:38.249Z,2.65
2023-01-29T07:01:10.318Z,2.66
2023-01-29T07:03:37.295Z,2.67
2023-01-29T07:06:04.765Z,2.64
2023-01-29T07:08:31.754Z,2.64
2023-01-29T07:11:00.395Z,2.60
2023-01-29T07:13:27.496Z,2.53
2023-01-29T07:15:54.148Z,2.48
2023-01-29T07:18:20.860Z,2.48
2023-01-29T07:20:47.506Z,2.47
2023-01-29T07:23:14.927Z,2.49
2023-01-29T07:25:41.632Z,2.53
2023-01-29T07:28:08.434Z,2.57
2023-01-29T07:30:35.897Z,2.59
2023-01-29T07:33:08.870Z,2.59
2023-01-29T07:35:40.790Z,2.62
2023-01-29T07:38:08.892Z,2.67
2023-01-29T07:40:35.781Z,2.72
2023-01-29T07:43:05.537Z,2.75
2023-01-29T07:45:38.501Z,2.75
2023-01-29T07:48:06.827Z,2.63
2023-01-29T07:50:35.259Z,2.66
2023-01-29T07:53:02.367Z,2.66
2023-01-29T07:55:29.441Z,2.71
2023-01-29T07:57:57.255Z,2.71
2023-01-29T08:00:24.070Z,2.75
2023-01-29T08:02:50.794Z,2.76
2023-01-29T08:05:17.500Z,2.73
2023-01-29T08:07:49.259Z,2.75
2023-01-29T08:10:20.836Z,2.86
2023-01-29T08:12:47.563Z,3.02
2023-01-29T08:15:14.216Z,3.25
2023-01-29T08:17:56.114Z,3.47
2023-01-29T08:20:24.264Z,3.70
2023-01-29T08:22:58.826Z,3.84
2023-01-29T08:25:28.915Z,3.89
2023-01-29T08:27:59.858Z,4.10
2023-01-29T08:30:28.922Z,4.28
2023-01-29T08:32:55.702Z,4.49
2023-01-29T08:35:22.964Z,4.81
2023-01-29T08:37:59.145Z,5.27
2023-01-29T08:40:27.660Z,5.64
2023-01-29T08:43:07.757Z,6.27
2023-01-29T08:45:38.775Z,7.01
2023-01-29T08:48:05.936Z,7.43
2023-01-29T08:50:34.839Z,8.12
2023-01-29T08:53:05.164Z,8.50
2023-01-29T08:55:31.834Z,8.76
2023-01-29T08:57:58.575Z,8.52
2023-01-29T09:00:25.358Z,8.05
2023-01-29T09:02:52.194Z,7.42
2023-01-29T09:05:19.331Z,6.73
2023-01-29T09:07:46.211Z,6.41
2023-01-29T09:10:13.417Z,6.18
2023-01-29T09:12:40.058Z,5.88
2023-01-29T09:15:07.219Z,5.69
2023-01-29T09:17:33.899Z,5.63
2023-01-29T09:20:00.517Z,5.70
2023-01-29T09:22:27.172Z,5.78
2023-01-29T09:24:53.920Z,5.76
2023-01-29T09:27:20.553Z,6.01
2023-01-29T09:29:47.180Z,6.30
2023-01-29T09:32:14.639Z,6.77
2023-01-29T09:34:41.347Z,7.18
2023-01-29T09:37:08.012Z,7.60
2023-01-29T09:39:34.828Z,7.57
2023-01-29T09:42:10.743Z,7.79
2023-01-29T09:44:52.963Z,8.08
2023-01-29T09:47:20.464Z,8.02
2023-01-29T09:49:51.162Z,8.35
2023-01-29T09:52:22.174Z,8.48
2023-01-29T09:55:10.602Z,8.75
2023-01-29T09:57:50.271Z,8.88
2023-01-29T10:00:40.290Z,8.97
2023-01-29T10:03:25.695Z,9.02
2023-01-29T10:05:58.098Z,9.45
2023-01-29T10:08:41.774Z,9.59
2023-01-29T10:11:24.002Z,9.77
2023-01-29T10:14:18.252Z,9.85
2023-01-29T10:17:01.219Z,10.35
2023-01-29T10:19:48.252Z,10.13
2023-01-29T10:22:33.815Z,9.90
2023-01-29T10:25:03.955Z,10.31
2023-01-29T10:27:34.619Z,10.57
2023-01-29T10:30:06.642Z,10.80
2023-01-29T10:32:36.868Z,10.39
2023-01-29T10:35:28.075Z,9.80
2023-01-29T10:37:56.379Z,9.19
2023-01-29T10:40:47.076Z,9.01
2023-01-29T10:43:38.969Z,9.15
2023-01-29T10:46:32.155Z,9.11
2023-01-29T10:49:08.289Z,9.52
2023-01-29T10:52:04.588Z,10.43
2023-01-29T10:54:45.704Z,11.45
2023-01-29T10:57:38.495Z,13.11
2023-01-29T11:00:18.257Z,14.12
2023-01-29T11:02:48.323Z,14.79
2023-01-29T11:05:41.035Z,16.35
2023-01-29T11:08:13.572Z,16.81
2023-01-29T11:11:13.423Z,17.62
2023-01-29T11:13:46.984Z,18.60
2023-01-29T11:16:13.980Z,19.97
2023-01-29T11:18:53.759Z,20.43
2023-01-29T11:21:21.374Z,21.11
2023-01-29T11:23:48.020Z,21.57
2023-01-29T11:26:20.709Z,22.21
2023-01-29T11:28:49.641Z,23.28
2023-01-29T11:31:38.196Z,23.52
2023-01-29T11:34:21.067Z,22.84
2023-01-29T11:37:04.557Z,21.84
2023-01-29T11:39:32.533Z,20.31
2023-01-29T11:42:04.619Z,18.97
2023-01-29T11:44:41.338Z,17.29
2023-01-29T11:47:20.107Z,15.80
2023-01-29T11:49:50.206Z,15.32
2023-01-29T11:52:23.723Z,16.19
2023-01-29T11:54:58.648Z,15.95
2023-01-29T11:57:35.796Z,17.00
2023-01-29T12:00:31.247Z,17.96
2023-01-29T12:03:30.562Z,17.98
2023-01-29T12:06:21.732Z,17.99
2023-01-29T12:09:03.144Z,18.33
2023-01-29T12:11:29.822Z,19.15
2023-01-29T12:13:59.218Z,20.08
2023-01-29T12:16:40.612Z,20.76
2023-01-29T12:19:30.215Z,21.03
2023-01-29T12:22:20.315Z,20.19
2023-01-29T12:24:57.569Z,18.54
2023-01-29T12:27:35.911Z,16.00
2023-01-29T12:30:11.436Z,14.23
2023-01-29T12:32:49.666Z,13.52
2023-01-29T12:35:31.647Z,12.63
2023-01-29T12:38:14.545Z,11.96
2023-01-29T12:40:48.720Z,11.74
2023-01-29T12:43:33.394Z,11.28
2023-01-29T12:46:02.084Z,11.10
2023-01-29T12:48:34.220Z,10.96
2023-01-29T12:51:11.900Z,10.68
2023-01-29T12:53:48.127Z,10.46
2023-01-29T12:56:33.156Z,9.88
2023-01-29T12:59:04.900Z,9.90
2023-01-29T13:01:38.354Z,9.68
2023-01-29T13:04:29.440Z,9.78
2023-01-29T13:07:06.003Z,9.62
2023-01-29T13:09:34.683Z,9.41
2023-01-29T13:12:07.134Z,9.21
2023-01-29T13:14:46.860Z,9.28
2023-01-29T13:17:21.393Z,9.37
2023-01-29T13:19:52.344Z,9.62
2023-01-29T13:22:25.945Z,9.64
2023-01-29T13:25:04.723Z,9.62
2023-01-29T13:27:34.873Z,9.51
2023-01-29T13:30:01.894Z,9.46
2023-01-29T13:32:31.155Z,9.26
2023-01-29T13:35:12.556Z,9.19
2023-01-29T13:37:47.917Z,9.24
2023-01-29T13:40:26.592Z,9.31
2023-01-29T13:42:55.256Z,9.34
2023-01-29T13:45:34.930Z,9.31
2023-01-29T13:48:23.341Z,9.02
2023-01-29T13:50:51.679Z,9.04
2023-01-29T13:53:25.161Z,9.13
2023-01-29T13:55:51.862Z,8.78
2023-01-29T13:58:38.394Z,8.79
2023-01-29T14:01:05.135Z,8.75
2023-01-29T14:03:40.015Z,8.77
2023-01-29T14:06:40.083Z,8.69
2023-01-29T14:09:34.394Z,8.48
2023-01-29T14:12:01.164Z,8.44
2023-01-29T14:14:49.790Z,8.65
2023-01-29T14:17:18.434Z,8.69
2023-01-29T14:19:53.764Z,8.66
2023-01-29T14:22:26.960Z,8.61
2023-01-29T14:24:57.442Z,8.40
2023-01-29T14:27:25.687Z,8.39
2023-01-29T14:30:01.241Z,8.32
2023-01-29T14:32:28.283Z,8.15
2023-01-29T14:35:03.690Z,8.13
2023-01-29T14:37:39.484Z,8.20
2023-01-29T14:40:12.144Z,8.19
2023-01-29T14:42:55.592Z,7.83
2023-01-29T14:45:30.812Z,7.89
2023-01-29T14:48:03.538Z,7.72
2023-01-29T14:50:31.838Z,7.73
2023-01-29T14:53:26.025Z,7.59
2023-01-29T14:56:01.121Z,7.52
2023-01-29T14:58:27.703Z,7.33
2023-01-29T15:00:57.216Z,7.46
2023-01-29T15:03:45.724Z,7.16
2023-01-29T15:06:32.392Z,7.29
2023-01-29T15:09:22.039Z,7.00
2023-01-29T15:12:36.258Z,7.08
2023-01-29T15:15:15.993Z,7.16
2023-01-29T15:17:51.899Z,7.08
2023-01-29T15:20:34.081Z,7.00
2023-01-29T15:23:06.011Z,6.98
2023-01-29T15:25:37.368Z,6.91
2023-01-29T15:28:08.554Z,6.66
2023-01-29T15:30:36.365Z,6.71
2023-01-29T15:33:03.989Z,6.67
2023-01-29T15:35:40.981Z,6.59
2023-01-29T15:38:18.299Z,6.50
2023-01-29T15:41:02.953Z,6.42
2023-01-29T15:43:34.644Z,6.47
2023-01-29T15:46:04.575Z,6.43
2023-01-29T15:48:43.520Z,6.41
2023-01-29T15:51:17.376Z,6.39
2023-01-29T15:53:49.873Z,6.29
2023-01-29T15:56:21.447Z,6.32
2023-01-29T15:58:49.618Z,6.25
2023-01-29T16:01:16.677Z,6.24
2023-01-29T16:03:44.226Z,6.18
2023-01-29T16:06:11.636Z,6.12
2023-01-29T16:08:40.481Z,5.97
2023-01-29T16:11:08.597Z,6.00
2023-01-29T16:13:42.849Z,5.96
2023-01-29T16:16:15.568Z,5.88
2023-01-29T16:18:57.867Z,5.69
2023-01-29T16:21:35.551Z,5.62
2023-01-29T16:24:09.348Z,5.66
2023-01-29T16:26:44.895Z,5.63
2023-01-29T16:29:14.709Z,5.61
2023-01-29T16:31:44.491Z,5.52
2023-01-29T16:34:30.566Z,5.45
2023-01-29T16:36:57.586Z,5.34
2023-01-29T16:39:28.638Z,5.31
2023-01-29T16:42:08.003Z,5.29
2023-01-29T16:44:36.768Z,5.21
2023-01-29T16:47:25.501Z,5.23
2023-01-29T16:50:16.348Z,5.17
2023-01-29T16:52:57.744Z,5.11
2023-01-29T16:55:25.925Z,5.09
2023-01-29T16:57:56.185Z,5.09
2023-01-29T17:00:28.644Z,5.06
2023-01-29T17:03:08.321Z,4.96
2023-01-29T17:05:37.828Z,4.95
2023-01-29T17:08:06.165Z,4.80
2023-01-29T17:10:33.719Z,4.89
2023-01-29T17:13:16.735Z,4.76
2023-01-29T17:15:43.328Z,4.76
2023-01-29T17:18:24.888Z,4.77
2023-01-29T17:20:53.010Z,4.80
2023-01-29T17:23:19.773Z,4.73
2023-01-29T17:25:47.412Z,4.81
2023-01-29T17:28:16.150Z,4.78
2023-01-29T17:30:46.401Z,4.72
2023-01-29T17:33:22.667Z,4.65
2023-01-29T17:35:50.425Z,4.73
2023-01-29T17:38:25.856Z,4.78
2023-01-29T17:40:57.989Z,4.76
2023-01-29T17:43:24.626Z,4.67
2023-01-29T17:45:51.499Z,4.69
2023-01-29T17:48:21.560Z,4.68
2023-01-29T17:50:52.906Z,4.70
2023-01-29T17:53:21.175Z,4.69
2023-01-29T17:55:48.344Z,4.75
2023-01-29T17:58:19.486Z,4.78
2023-01-29T18:00:46.951Z,4.76
2023-01-29T18:03:14.159Z,4.66
2023-01-29T18:05:42.531Z,4.76
2023-01-29T18:08:15.572Z,4.72
2023-01-29T18:10:42.267Z,4.66
2023-01-29T18:13:08.950Z,4.66
2023-01-29T18:15:35.771Z,4.69
2023-01-29T18:18:02.537Z,4.66
2023-01-29T18:20:30.152Z,4.62
2023-01-29T18:22:57.279Z,4.60
2023-01-29T18:25:25.733Z,4.63
2023-01-29T18:27:52.449Z,4.59
2023-01-29T18:30:19.116Z,4.61
2023-01-29T18:32:47.443Z,4.58
2023-01-29T18:35:14.722Z,4.54
2023-01-29T18:37:41.440Z,4.59
2023-01-29T18:40:09.369Z,4.65
2023-01-29T18:42:36.119Z,4.59
2023-01-29T18:45:03.867Z,4.49
2023-01-29T18:47:30.646Z,4.45
2023-01-29T18:49:57.334Z,4.46
2023-01-29T18:52:24.213Z,4.22
2023-01-29T18:54:50.899Z,4.20
2023-01-29T18:58:26.146Z,4.19
2023-01-29T19:00:04.729Z,4.13
2023-01-29T19:02:31.559Z,4.18
2023-01-29T19:04:58.323Z,4.17
2023-01-29T19:07:25.012Z,4.20
2023-01-29T19:09:51.769Z,4.26
2023-01-29T19:12:18.468Z,4.26
2023-01-29T19:14:45.209Z,4.26
2023-01-29T19:17:11.921Z,4.31
2023-01-29T19:19:38.571Z,4.32
2023-01-29T19:22:05.876Z,4.34
2023-01-29T19:24:36.285Z,4.30
2023-01-29T19:27:03.003Z,4.26
2023-01-29T19:29:29.753Z,4.20
2023-01-29T19:31:56.387Z,4.15
2023-01-29T19:34:23.799Z,4.15
2023-01-29T19:36:50.514Z,4.12
2023-01-29T19:39:17.292Z,4.07
2023-01-29T19:41:44.030Z,4.09
2023-01-29T19:44:11.437Z,4.10
2023-01-29T19:46:39.022Z,4.03
2023-01-29T19:49:06.674Z,4.08
2023-01-29T19:51:33.320Z,4.08
2023-01-29T19:53:59.987Z,3.93
2023-01-29T19:56:28.572Z,4.02
2023-01-29T19:58:57.306Z,3.96
2023-01-29T20:01:30.451Z,3.81
2023-01-29T20:03:57.641Z,3.93
2023-01-29T20:06:27.230Z,3.85
2023-01-29T20:08:54.187Z,3.88
2023-01-29T20:11:22.766Z,4.01
2023-01-29T20:13:51.198Z,4.02
2023-01-29T20:16:19.102Z,4.08
2023-01-29T20:18:46.128Z,3.97
2023-01-29T20:21:15.383Z,3.95
2023-01-29T20:23:44.248Z,4.06
2023-01-29T20:26:14.355Z,4.02
2023-01-29T20:28:41.660Z,3.95
2023-01-29T20:31:09.741Z,4.09
2023-01-29T20:33:39.087Z,4.04
2023-01-29T20:36:09.692Z,3.96
2023-01-29T20:38:36.979Z,3.78
2023-01-29T20:41:09.541Z,3.66
2023-01-29T20:43:36.460Z,3.65
2023-01-29T20:46:03.975Z,3.62
2023-01-29T20:48:31.411Z,3.51
2023-01-29T20:51:09.193Z,3.33
2023-01-29T20:53:36.891Z,3.59
2023-01-29T20:56:04.477Z,3.66
2023-01-29T20:58:31.546Z,3.58
2023-01-29T21:00:58.380Z,3.46
2023-01-29T21:03:25.128Z,3.52
2023-01-29T21:05:52.216Z,3.46
2023-01-29T21:08:18.905Z,3.05
2023-01-29T21:10:45.704Z,3.10
2023-01-29T21:13:12.774Z,3.11
2023-01-29T21:15:41.847Z,3.23
2023-01-29T21:18:08.566Z,3.26
2023-01-29T21:20:36.097Z,3.07
2023-01-29T21:23:05.936Z,3.12
2023-01-29T21:25:33.792Z,3.16
2023-01-29T21:28:01.026Z,3.20
2023-01-29T21:30:28.100Z,3.31
2023-01-29T21:32:54.968Z,3.17
2023-01-29T21:35:22.046Z,3.23
2023-01-29T21:37:48.962Z,3.12
2023-01-29T21:40:16.430Z,3.23
2023-01-29T21:43:02.265Z,2.85
2023-01-29T21:45:29.299Z,2.87
2023-01-29T21:47:56.141Z,2.84
2023-01-29T21:50:22.922Z,2.74
2023-01-29T21:52:49.620Z,2.87
2023-01-29T21:55:16.635Z,2.86
2023-01-29T21:57:43.380Z,2.97
2023-01-29T22:00:12.364Z,2.98
2023-01-29T22:02:39.729Z,3.16
2023-01-29T22:05:18.258Z,3.04
2023-01-29T22:07:46.638Z,2.99
2023-01-29T22:10:13.426Z,3.39
2023-01-29T22:12:40.346Z,3.13
2023-01-29T22:15:08.001Z,3.09
2023-01-29T22:17:35.334Z,3.36
2023-01-29T22:20:02.350Z,3.35
2023-01-29T22:22:29.011Z,3.28
2023-01-29T22:24:57.585Z,3.41
2023-01-29T22:27:24.562Z,3.48
2023-01-29T22:29:51.432Z,3.45
2023-01-29T22:32:18.287Z,3.34
2023-01-29T22:34:44.987Z,3.34
2023-01-29T22:37:11.603Z,3.57
2023-01-29T22:39:38.258Z,3.79
2023-01-29T22:42:05.118Z,3.90
2023-01-29T22:44:31.819Z,3.80
2023-01-29T22:46:58.430Z,3.92
2023-01-29T22:49:25.708Z,3.87
2023-01-29T22:52:09.944Z,4.11
2023-01-29T22:54:41.646Z,4.14
2023-01-29T22:57:10.838Z,4.07
2023-01-29T22:59:37.654Z,4.16
2023-01-29T23:02:05.191Z,4.13
2023-01-29T23:04:31.946Z,4.21
2023-01-29T23:06:58.721Z,4.22
2023-01-29T23:09:25.357Z,4.09
2023-01-29T23:11:52.020Z,4.10
2023-01-29T23:14:18.919Z,3.69
2023-01-29T23:16:45.581Z,3.82
2023-01-29T23:19:12.406Z,3.71
2023-01-29T23:21:39.655Z,3.89
2023-01-29T23:24:07.675Z,3.85
2023-01-29T23:26:52.947Z,3.66
2023-01-29T23:29:19.572Z,3.54
2023-01-29T23:31:46.325Z,3.53
2023-01-29T23:34:13.755Z,3.40
2023-01-29T23:36:40.899Z,3.53
2023-01-29T23:39:07.867Z,3.56
2023-01-29T23:41:34.624Z,3.56
2023-01-29T23:44:01.356Z,3.54
2023-01-29T23:46:28.046Z,3.64
2023-01-29T23:48:54.736Z,3.84
2023-01-29T23:51:21.464Z,3.88
2023-01-29T23:53:48.092Z,3.84
2023-01-29T23:56:14.835Z,3.76
2023-01-29T23:58:41.543Z,3.62
